createdAt,value
2022-12-27T00:04:16.904Z,2.58
2022-12-27T00:09:09.227Z,1.08
2022-12-27T00:14:05.865Z,0.70
2022-12-27T00:18:58.054Z,0.55
2022-12-27T00:23:56.236Z,0.40
2022-12-27T00:28:49.094Z,0.55
2022-12-27T00:33:41.994Z,0.73
2022-12-27T00:38:34.747Z,4.25
2022-12-27T00:43:26.444Z,10.40
2022-12-27T00:48:18.232Z,4.25
2022-12-27T00:53:11.820Z,1.50
2022-12-27T00:58:03.753Z,0.50
2022-12-27T01:02:55.635Z,0.73
2022-12-27T01:07:47.459Z,0.20
2022-12-27T01:12:39.266Z,0.25
2022-12-27T01:17:31.070Z,0.20
2022-12-27T01:22:23.067Z,0.20
2022-12-27T01:27:15.006Z,0.22
2022-12-27T01:32:07.430Z,0.20
2022-12-27T01:36:59.161Z,0.32
2022-12-27T01:42:09.899Z,0.20
2022-12-27T01:47:03.282Z,0.30
2022-12-27T01:51:55.009Z,0.45
2022-12-27T01:56:47.056Z,0.25
2022-12-27T02:01:43.204Z,0.35
2022-12-27T02:06:37.115Z,0.30
2022-12-27T02:11:51.449Z,0.30
2022-12-27T02:16:43.098Z,0.30
2022-12-27T02:21:55.981Z,0.30
2022-12-27T02:27:08.114Z,0.28
2022-12-27T02:32:12.019Z,0.20
2022-12-27T02:37:09.173Z,0.20
2022-12-27T02:42:21.481Z,0.20
2022-12-27T02:47:42.484Z,0.30
2022-12-27T02:52:55.501Z,0.38
2022-12-27T02:58:09.646Z,0.20
2022-12-27T03:03:26.713Z,0.15
2022-12-27T03:08:27.430Z,0.28
2022-12-27T03:13:43.151Z,0.30
2022-12-27T03:18:51.244Z,0.15
2022-12-27T03:24:04.364Z,0.10
2022-12-27T03:29:16.481Z,0.20
2022-12-27T03:34:31.238Z,0.55
2022-12-27T03:39:37.618Z,0.50
2022-12-27T03:44:29.371Z,0.30
2022-12-27T03:49:44.124Z,0.20
2022-12-27T03:54:41.030Z,0.20
2022-12-27T03:59:32.989Z,0.20
2022-12-27T04:04:24.740Z,0.20
2022-12-27T04:09:35.235Z,0.30
2022-12-27T04:14:45.357Z,0.20
2022-12-27T04:19:55.686Z,0.20
2022-12-27T04:25:05.796Z,0.45
2022-12-27T04:30:16.261Z,0.38
2022-12-27T04:35:08.077Z,0.25
2022-12-27T04:40:18.675Z,0.30
2022-12-27T04:45:29.210Z,0.20
2022-12-27T04:50:45.259Z,0.13
2022-12-27T04:55:36.999Z,0.32
2022-12-27T05:00:49.754Z,0.20
2022-12-27T05:05:42.695Z,0.32
2022-12-27T05:10:52.895Z,0.15
2022-12-27T05:15:44.625Z,0.10
2022-12-27T05:20:36.386Z,0.20
2022-12-27T05:25:38.522Z,0.10
2022-12-27T05:30:33.447Z,0.10
2022-12-27T05:35:25.182Z,0.15
2022-12-27T05:40:16.947Z,0.30
2022-12-27T05:45:08.918Z,0.10
2022-12-27T05:50:00.587Z,0.05
2022-12-27T05:54:52.270Z,0.20
2022-12-27T05:59:44.071Z,0.10
2022-12-27T06:04:35.704Z,0.10
2022-12-27T06:09:27.407Z,0.20
2022-12-27T06:14:19.117Z,0.10
2022-12-27T06:19:10.769Z,0.40
2022-12-27T06:24:02.407Z,0.10
2022-12-27T06:28:56.249Z,0.10
2022-12-27T06:33:50.201Z,0.20
2022-12-27T06:38:42.388Z,0.15
2022-12-27T06:43:34.432Z,0.10
2022-12-27T06:48:26.286Z,0.15
2022-12-27T06:53:18.028Z,0.10
2022-12-27T06:58:09.715Z,0.20
2022-12-27T07:03:04.232Z,0.10
2022-12-27T07:07:56.083Z,0.20
2022-12-27T07:12:47.921Z,0.20
2022-12-27T07:17:39.697Z,0.10
2022-12-27T07:22:31.571Z,0.20
2022-12-27T07:27:23.371Z,0.10
2022-12-27T07:32:15.011Z,0.10
2022-12-27T07:37:07.548Z,0.20
2022-12-27T07:42:04.704Z,0.20
2022-12-27T07:46:59.486Z,0.20
2022-12-27T07:51:51.082Z,0.25
2022-12-27T07:56:42.830Z,0.20
2022-12-27T08:01:54.668Z,0.85
2022-12-27T08:06:46.685Z,0.30
2022-12-27T08:11:38.323Z,0.38
2022-12-27T08:16:30.046Z,2.65
2022-12-27T08:21:21.860Z,0.60
2022-12-27T08:26:13.546Z,1.00
2022-12-27T08:31:08.309Z,1.02
2022-12-27T08:36:53.553Z,1.05
2022-12-27T08:41:21.327Z,1.10
2022-12-27T08:46:13.044Z,2.03
2022-12-27T08:51:12.386Z,2.03
2022-12-27T08:56:05.803Z,1.80
2022-12-27T09:01:05.253Z,1.83
2022-12-27T09:06:17.287Z,1.70
2022-12-27T09:11:18.248Z,1.95
2022-12-27T09:16:13.176Z,2.47
2022-12-27T09:21:07.380Z,1.85
2022-12-27T09:25:59.065Z,2.17
2022-12-27T09:30:50.785Z,2.60
2022-12-27T09:35:42.473Z,2.75
2022-12-27T09:40:34.225Z,3.10
2022-12-27T09:45:35.595Z,2.60
2022-12-27T09:50:52.422Z,2.47
2022-12-27T09:55:48.565Z,3.60
2022-12-27T10:00:46.082Z,3.03
2022-12-27T10:05:39.728Z,2.60
2022-12-27T10:11:01.655Z,3.22
2022-12-27T10:16:20.412Z,2.15
2022-12-27T10:21:24.656Z,1.67
2022-12-27T10:26:20.304Z,1.55
2022-12-27T10:31:21.123Z,1.58
2022-12-27T10:36:24.743Z,2.13
2022-12-27T10:41:16.274Z,1.50
2022-12-27T10:46:19.415Z,1.60
2022-12-27T10:51:11.985Z,1.60
2022-12-27T10:56:09.674Z,2.65
2022-12-27T11:01:01.389Z,1.50
2022-12-27T11:06:05.237Z,1.77
2022-12-27T11:11:23.138Z,1.13
2022-12-27T11:16:26.371Z,1.25
2022-12-27T11:21:27.465Z,0.88
2022-12-27T11:26:23.572Z,0.70
2022-12-27T11:31:18.081Z,0.70
2022-12-27T11:36:12.032Z,0.65
2022-12-27T11:41:12.178Z,1.42
2022-12-27T11:46:13.956Z,0.77
2022-12-27T11:51:30.611Z,0.80
2022-12-27T11:56:32.448Z,0.60
2022-12-27T12:01:54.803Z,0.70
2022-12-27T12:07:24.562Z,0.57
2022-12-27T12:12:38.171Z,0.70
2022-12-27T12:17:48.684Z,0.52
2022-12-27T12:22:59.991Z,0.30
2022-12-27T12:28:47.310Z,0.50
2022-12-27T12:33:33.811Z,1.17
2022-12-27T12:38:47.356Z,0.50
2022-12-27T12:43:59.954Z,0.70
2022-12-27T12:49:16.279Z,0.40
2022-12-27T12:54:29.195Z,0.95
2022-12-27T12:59:52.944Z,0.60
2022-12-27T13:05:13.481Z,0.40
2022-12-27T13:10:57.760Z,0.38
2022-12-27T13:15:58.305Z,0.45
2022-12-27T13:21:16.595Z,0.40
2022-12-27T13:26:32.763Z,0.35
2022-12-27T13:31:36.490Z,0.30
2022-12-27T13:36:46.611Z,0.52
2022-12-27T13:42:15.985Z,0.20
2022-12-27T13:48:01.868Z,0.40
2022-12-27T13:53:01.968Z,0.30
2022-12-27T13:58:20.919Z,0.40
2022-12-27T14:03:34.197Z,0.88
2022-12-27T14:08:43.538Z,0.20
2022-12-27T14:13:40.237Z,1.50
2022-12-27T14:19:15.473Z,0.30
2022-12-27T14:24:31.971Z,0.30
2022-12-27T14:30:12.778Z,0.30
2022-12-27T14:35:25.501Z,0.40
2022-12-27T14:40:22.708Z,0.30
2022-12-27T14:45:35.875Z,0.60
2022-12-27T14:50:52.162Z,1.00
2022-12-27T14:56:03.603Z,0.77
2022-12-27T15:01:15.369Z,0.52
2022-12-27T15:06:45.380Z,0.38
2022-12-27T15:11:55.787Z,0.50
2022-12-27T15:16:56.555Z,0.45
2022-12-27T15:22:02.166Z,0.30
2022-12-27T15:26:59.503Z,0.35
2022-12-27T15:32:03.696Z,0.60
2022-12-27T15:36:55.666Z,0.40
2022-12-27T15:41:50.423Z,1.50
2022-12-27T15:47:05.527Z,0.52
2022-12-27T15:52:16.294Z,0.40
2022-12-27T15:57:32.587Z,0.38
2022-12-27T16:02:42.451Z,0.40
2022-12-27T16:07:51.816Z,0.40
2022-12-27T16:12:45.175Z,0.17
2022-12-27T16:17:55.644Z,0.10
2022-12-27T16:22:50.819Z,0.25
2022-12-27T16:27:43.392Z,0.20
2022-12-27T16:32:35.820Z,0.32
2022-12-27T16:37:44.942Z,0.20
2022-12-27T16:42:49.297Z,0.35
2022-12-27T16:47:46.579Z,0.57
2022-12-27T16:53:04.686Z,0.47
2022-12-27T16:58:35.496Z,0.70
2022-12-27T17:03:27.192Z,0.55
2022-12-27T17:08:21.175Z,0.50
2022-12-27T17:13:22.453Z,0.30
2022-12-27T17:18:51.989Z,0.20
2022-12-27T17:23:48.123Z,0.10
2022-12-27T17:29:05.952Z,0.15
2022-12-27T17:34:17.531Z,1.73
2022-12-27T17:39:34.043Z,0.50
2022-12-27T17:44:54.195Z,0.43
2022-12-27T17:49:47.534Z,0.30
2022-12-27T17:54:57.543Z,0.30
2022-12-27T17:59:50.865Z,0.20
2022-12-27T18:04:53.074Z,0.13
2022-12-27T18:09:55.698Z,0.10
2022-12-27T18:15:08.320Z,0.10
2022-12-27T18:20:00.173Z,0.15
2022-12-27T18:24:51.811Z,0.30
2022-12-27T18:29:43.900Z,0.30
2022-12-27T18:34:42.977Z,0.20
2022-12-27T18:39:47.245Z,0.20
2022-12-27T18:44:47.417Z,0.20
2022-12-27T18:49:39.063Z,0.20
2022-12-27T18:54:33.739Z,0.40
2022-12-27T18:59:31.241Z,0.20
2022-12-27T19:04:25.815Z,0.30
2022-12-27T19:09:19.991Z,0.40
2022-12-27T19:14:13.739Z,0.30
2022-12-27T19:19:10.143Z,0.30
2022-12-27T19:24:21.948Z,0.40
2022-12-27T19:29:37.884Z,0.30
2022-12-27T19:34:44.178Z,0.30
2022-12-27T19:39:38.709Z,0.30
2022-12-27T19:44:32.572Z,0.70
2022-12-27T19:54:35.982Z,0.38
2022-12-27T19:59:28.048Z,0.40
2022-12-27T20:04:20.218Z,0.40
2022-12-27T20:09:17.517Z,0.50
2022-12-27T20:14:09.609Z,0.30
2022-12-27T20:19:02.849Z,1.38
2022-12-27T20:23:54.987Z,0.50
2022-12-27T20:28:47.545Z,0.30
2022-12-27T20:33:39.426Z,0.40
2022-12-27T20:38:31.348Z,0.30
2022-12-27T20:43:23.007Z,0.60
2022-12-27T20:48:15.119Z,0.20
2022-12-27T20:53:07.360Z,0.40
2022-12-27T20:58:00.457Z,0.30
2022-12-27T21:02:52.473Z,0.20
2022-12-27T21:07:50.801Z,0.20
2022-12-27T21:12:42.522Z,0.30
2022-12-27T21:17:34.694Z,0.20
2022-12-27T21:22:26.738Z,0.22
2022-12-27T21:27:18.475Z,0.30
2022-12-27T21:32:10.976Z,0.30
2022-12-27T21:37:07.488Z,0.20
2022-12-27T21:42:03.400Z,0.20
2022-12-27T21:46:55.047Z,0.10
2022-12-27T21:51:47.077Z,0.10
2022-12-27T21:56:39.327Z,0.20
2022-12-27T22:01:51.953Z,0.10
2022-12-27T22:06:47.075Z,0.10
2022-12-27T22:11:39.739Z,0.30
2022-12-27T22:16:36.432Z,0.22
2022-12-27T22:21:30.897Z,0.30
2022-12-27T22:26:25.214Z,0.40
2022-12-27T22:31:22.386Z,0.30
2022-12-27T22:36:17.241Z,0.20
2022-12-27T22:41:14.846Z,0.10
2022-12-27T22:46:12.871Z,0.10
2022-12-27T22:51:13.955Z,0.20
2022-12-27T22:56:11.718Z,0.13
2022-12-27T23:01:10.837Z,0.50
2022-12-27T23:06:02.883Z,0.60
2022-12-27T23:10:54.841Z,1.65
2022-12-27T23:15:46.540Z,0.70
2022-12-27T23:20:38.347Z,0.95
2022-12-27T23:25:50.092Z,0.70
2022-12-27T23:30:41.766Z,0.50
2022-12-27T23:35:35.109Z,0.40
2022-12-27T23:40:26.799Z,0.30
2022-12-27T23:45:18.485Z,0.10
2022-12-27T23:50:10.959Z,0.10
2022-12-27T23:55:04.914Z,0.10
2022-12-27T23:59:56.586Z,0.10
